Terminal Aerodrome Forecast
Issued by NWS Cleveland, OH

Home | Current Version | Previous Version | Graphics & Text | Print | Product List | Glossary On
Versions: 1 2 3 4 5 6 7 8 9 10 11 12 13 14 15 16
091
FTUS41 KCLE 211730
TAFMFD
TAF
KMFD 211730Z 2118/2218 36010KT 6SM -RA BR SCT005 OVC015
      TEMPO 2118/2121 2SM -DZ BR BKN005
     FM212100 35006KT P6SM OVC025
     FM220300 33003KT P6SM SCT070 BKN200
     FM220800 30003KT 5SM BR SCT200
     FM221500 33008KT P6SM BKN030=

USA.gov is the U.S. government's official web portal to all federal, state and local government web resources and services.